Time;durP1;ratioP1;P1;durP2;ratioP2;P2;SDS_P1;SDS_P2;PMS_P1;PMS_P2;Temp;Humidity;BMP_temperature;BMP_pressure;BME280_temperature;BME280_humidity;BME280_pressure;Samples;Min_cycle;Max_cycle;Signal;HPM_P1;HPM_P2
2023/05/24 00:01:01;;;;;;;12.27;8.50;;;;;;;;;;4981747;28;20085;-85
2023/05/24 00:03:29;;;;;;;13.80;8.82;;;;;;;;;;4981783;28;20027;-85
2023/05/24 00:06:26;;;;;;;11.75;8.95;;;;;;;;;;4981269;28;20110;-85
2023/05/24 00:08:53;;;;;;;14.45;8.32;;;;;;;;;;4981606;28;20027;-85
2023/05/24 00:11:19;;;;;;;17.73;8.20;;;;;;;;;;4981314;28;20420;-86
2023/05/24 00:13:45;;;;;;;10.00;7.75;;;;;;;;;;4981116;28;20023;-86
2023/05/24 00:16:12;;;;;;;11.80;8.32;;;;;;;;;;4981708;28;20110;-85
2023/05/24 00:18:39;;;;;;;13.18;8.05;;;;;;;;;;4997714;28;20038;-85
2023/05/24 00:21:31;;;;;;;11.18;7.75;;;;;;;;;;4983489;28;20330;-85
2023/05/24 00:23:57;;;;;;;12.68;7.47;;;;;;;;;;5000328;28;20030;-84
2023/05/24 00:26:23;;;;;;;13.27;6.85;;;;;;;;;;5000654;28;20034;-84
2023/05/24 00:28:49;;;;;;;11.90;6.88;;;;;;;;;;5000356;28;20022;-84
2023/05/24 00:31:15;;;;;;;9.52;6.88;;;;;;;;;;5000190;28;20417;-84
2023/05/24 00:33:41;;;;;;;9.13;6.90;;;;;;;;;;4983146;28;20329;-85
2023/05/24 00:36:16;;;;;;;9.02;6.47;;;;;;;;;;5000153;28;20473;-86
2023/05/24 00:38:42;;;;;;;11.55;6.60;;;;;;;;;;5000660;28;20083;-87
2023/05/24 00:41:10;;;;;;;8.55;6.47;;;;;;;;;;5000637;28;20030;-88
2023/05/24 00:43:36;;;;;;;11.73;6.55;;;;;;;;;;4992644;28;20425;-85
2023/05/24 00:46:13;;;;;;;12.00;6.28;;;;;;;;;;4983085;28;20034;-85
2023/05/24 00:48:39;;;;;;;8.55;6.22;;;;;;;;;;4999973;28;20031;-84
2023/05/24 00:51:05;;;;;;;8.10;5.85;;;;;;;;;;4982741;28;20034;-85
2023/05/24 00:53:32;;;;;;;9.48;5.68;;;;;;;;;;5000016;28;20029;-84
2023/05/24 00:55:59;;;;;;;7.43;5.60;;;;;;;;;;4999981;28;20075;-84
2023/05/24 00:58:29;;;;;;;10.73;5.65;;;;;;;;;;4999737;28;20026;-84
2023/05/24 01:00:58;;;;;;;10.43;5.70;;;;;;;;;;4999796;28;20122;-84
2023/05/24 01:03:28;;;;;;;8.73;5.75;;;;;;;;;;4999747;28;20033;-84
2023/05/24 01:05:55;;;;;;;9.18;6.03;;;;;;;;;;4982436;28;20033;-84
2023/05/24 01:08:41;;;;;;;10.13;6.13;;;;;;;;;;4999490;28;20413;-85
2023/05/24 01:11:26;;;;;;;9.82;6.38;;;;;;;;;;4999535;28;20053;-85
2023/05/24 01:13:58;;;;;;;7.78;5.63;;;;;;;;;;4998849;28;20027;-84
2023/05/24 01:16:27;;;;;;;10.75;6.13;;;;;;;;;;4999603;28;20030;-84
2023/05/24 01:19:16;;;;;;;7.10;5.53;;;;;;;;;;4999325;28;20053;-84
2023/05/24 01:22:01;;;;;;;8.93;5.95;;;;;;;;;;4998508;28;20054;-85
2023/05/24 01:24:41;;;;;;;9.73;5.50;;;;;;;;;;4999336;28;20034;-85
2023/05/24 01:27:08;;;;;;;7.88;5.45;;;;;;;;;;4999043;28;20105;-85
2023/05/24 01:29:35;;;;;;;10.45;5.93;;;;;;;;;;4999622;28;20034;-85
2023/05/24 01:32:01;;;;;;;8.07;6.05;;;;;;;;;;4999504;28;20026;-85
2023/05/24 01:34:27;;;;;;;8.48;5.65;;;;;;;;;;4998860;28;20030;-85
2023/05/24 01:36:53;;;;;;;11.18;6.05;;;;;;;;;;4981904;28;20033;-85
2023/05/24 01:39:23;;;;;;;7.75;5.50;;;;;;;;;;4998995;28;20019;-85
2023/05/24 01:42:08;;;;;;;12.13;5.90;;;;;;;;;;4981858;28;20030;-85
2023/05/24 01:44:37;;;;;;;11.15;5.80;;;;;;;;;;4979556;28;20055;-85
2023/05/24 01:47:12;;;;;;;10.10;5.68;;;;;;;;;;4979496;28;20027;-85
2023/05/24 01:49:42;;;;;;;9.63;5.70;;;;;;;;;;4979506;28;20041;-85
2023/05/24 01:52:28;;;;;;;8.23;5.68;;;;;;;;;;4962209;28;20085;-86
2023/05/24 01:54:56;;;;;;;8.25;5.60;;;;;;;;;;4979690;28;20142;-85
2023/05/24 01:57:23;;;;;;;9.95;5.32;;;;;;;;;;4983830;28;20023;-85
2023/05/24 01:59:50;;;;;;;9.93;5.28;;;;;;;;;;4998504;28;20061;-86
2023/05/24 02:02:16;;;;;;;10.77;5.40;;;;;;;;;;4999003;28;20049;-85
2023/05/24 02:04:42;;;;;;;8.75;5.22;;;;;;;;;;4998706;28;20033;-86
2023/05/24 02:07:08;;;;;;;12.73;5.55;;;;;;;;;;4998916;28;20034;-85
2023/05/24 02:09:34;;;;;;;7.28;5.18;;;;;;;;;;4981116;28;20333;-86
2023/05/24 02:12:01;;;;;;;8.27;5.22;;;;;;;;;;4998138;28;20033;-86
2023/05/24 02:14:27;;;;;;;9.82;5.88;;;;;;;;;;4998447;28;20042;-86
2023/05/24 02:16:57;;;;;;;8.43;5.50;;;;;;;;;;4981203;28;20049;-86
2023/05/24 02:19:23;;;;;;;11.50;5.28;;;;;;;;;;4998516;28;20030;-86
2023/05/24 02:22:22;;;;;;;7.82;5.35;;;;;;;;;;4997966;28;20060;-86
2023/05/24 02:24:48;;;;;;;10.35;5.85;;;;;;;;;;4998554;28;20034;-85
2023/05/24 02:27:14;;;;;;;7.82;5.82;;;;;;;;;;4998142;28;20113;-85
2023/05/24 02:29:40;;;;;;;8.48;5.90;;;;;;;;;;4998434;28;20038;-85
2023/05/24 02:32:06;;;;;;;11.90;5.47;;;;;;;;;;4998418;28;20022;-85
2023/05/24 02:34:33;;;;;;;8.40;5.50;;;;;;;;;;4998445;28;20037;-86
2023/05/24 02:36:59;;;;;;;11.35;5.60;;;;;;;;;;4998253;28;20021;-85
2023/05/24 02:39:25;;;;;;;10.07;5.55;;;;;;;;;;4997782;28;20038;-86
2023/05/24 02:41:51;;;;;;;8.20;5.85;;;;;;;;;;4980900;28;20389;-85
2023/05/24 02:44:17;;;;;;;11.95;6.28;;;;;;;;;;4997175;28;20038;-86
2023/05/24 02:46:43;;;;;;;8.02;5.70;;;;;;;;;;4998094;28;20073;-86
2023/05/24 02:49:09;;;;;;;12.00;6.05;;;;;;;;;;4998303;28;20034;-86
2023/05/24 02:51:41;;;;;;;8.55;6.55;;;;;;;;;;4997723;28;20037;-86
2023/05/24 02:54:07;;;;;;;10.38;6.35;;;;;;;;;;4997783;28;20037;-86
2023/05/24 02:56:33;;;;;;;12.13;6.78;;;;;;;;;;4998323;28;20022;-87
2023/05/24 02:58:59;;;;;;;10.45;5.97;;;;;;;;;;4998343;28;20023;-86
2023/05/24 03:01:25;;;;;;;11.25;6.72;;;;;;;;;;4998218;28;20030;-86
2023/05/24 03:03:51;;;;;;;10.27;7.00;;;;;;;;;;4997951;28;20093;-86
2023/05/24 03:06:17;;;;;;;10.93;6.70;;;;;;;;;;4998296;28;20026;-86
2023/05/24 03:09:20;;;;;;;10.05;6.93;;;;;;;;;;4997934;28;20405;-86
2023/05/24 03:11:46;;;;;;;11.23;7.45;;;;;;;;;;4997765;28;20034;-86
2023/05/24 03:14:13;;;;;;;8.70;7.03;;;;;;;;;;4997892;28;20325;-85
2023/05/24 03:16:39;;;;;;;13.88;8.45;;;;;;;;;;4997553;28;20410;-85
2023/05/24 03:19:05;;;;;;;12.40;7.28;;;;;;;;;;4980252;28;20058;-85
2023/05/24 03:21:47;;;;;;;17.92;7.90;;;;;;;;;;4980022;28;20031;-85
2023/05/24 03:24:13;;;;;;;10.65;6.97;;;;;;;;;;4980243;28;20068;-85
2023/05/24 03:26:40;;;;;;;10.77;7.72;;;;;;;;;;4997923;28;20038;-85
2023/05/24 03:29:06;;;;;;;35.97;8.25;;;;;;;;;;4997591;28;20076;-85
2023/05/24 03:31:32;;;;;;;11.48;7.78;;;;;;;;;;4997492;28;20401;-85
2023/05/24 03:33:58;;;;;;;14.68;7.93;;;;;;;;;;4998307;28;20101;-84
2023/05/24 03:36:25;;;;;;;14.20;9.13;;;;;;;;;;5001576;28;20030;-84
2023/05/24 03:41:54;;;;;;;12.73;8.57;;;;;;;;;;5001264;28;20093;-85
2023/05/24 03:44:20;;;;;;;15.13;8.88;;;;;;;;;;5001189;28;20022;-84
2023/05/24 03:46:46;;;;;;;11.18;8.63;;;;;;;;;;5001113;28;20038;-85
2023/05/24 03:49:12;;;;;;;12.27;9.02;;;;;;;;;;4983945;28;20053;-85
2023/05/24 03:51:38;;;;;;;14.50;8.70;;;;;;;;;;5001092;28;20022;-84
2023/05/24 03:54:04;;;;;;;13.75;8.70;;;;;;;;;;5000782;28;20058;-84
2023/05/24 03:56:30;;;;;;;16.92;9.63;;;;;;;;;;5001113;28;20026;-84
2023/05/24 03:58:59;;;;;;;13.90;9.45;;;;;;;;;;5000867;28;20027;-84
2023/05/24 04:01:25;;;;;;;13.77;9.07;;;;;;;;;;5000973;28;20491;-85
2023/05/24 04:03:55;;;;;;;15.13;8.27;;;;;;;;;;5000855;28;20065;-85
2023/05/24 04:06:27;;;;;;;11.43;8.30;;;;;;;;;;5000879;28;20483;-85
2023/05/24 04:08:53;;;;;;;13.57;8.40;;;;;;;;;;5000588;28;20085;-85
2023/05/24 04:11:21;;;;;;;14.55;9.20;;;;;;;;;;4983589;28;20060;-85
2023/05/24 04:13:47;;;;;;;18.20;8.35;;;;;;;;;;5000129;28;20029;-85
2023/05/24 04:16:13;;;;;;;17.80;8.80;;;;;;;;;;4983032;28;20349;-85
2023/05/24 04:18:39;;;;;;;15.50;8.80;;;;;;;;;;5000584;28;20073;-84
2023/05/24 04:21:05;;;;;;;13.60;8.75;;;;;;;;;;4983148;28;20049;-85
2023/05/24 04:30:28;;;;;;;11.18;8.65;;;;;;;;;;5000161;28;20037;-85
2023/05/24 04:32:55;;;;;;;15.35;9.07;;;;;;;;;;5000478;28;20033;-85
2023/05/24 04:35:21;;;;;;;11.90;8.40;;;;;;;;;;5000372;28;20118;-85
2023/05/24 04:37:48;;;;;;;14.90;9.20;;;;;;;;;;5000512;28;20033;-85
2023/05/24 04:40:21;;;;;;;11.10;7.80;;;;;;;;;;4982958;28;20026;-85
2023/05/24 04:42:47;;;;;;;12.82;8.35;;;;;;;;;;4999955;28;20034;-85
2023/05/24 04:45:14;;;;;;;13.65;9.32;;;;;;;;;;4999952;28;20073;-85
2023/05/24 04:47:41;;;;;;;13.57;7.78;;;;;;;;;;5000377;28;20030;-85
2023/05/24 04:50:07;;;;;;;11.43;7.63;;;;;;;;;;5000391;28;20014;-85
2023/05/24 04:52:35;;;;;;;13.23;7.80;;;;;;;;;;4999821;28;20026;-86
2023/05/24 04:55:02;;;;;;;11.60;7.28;;;;;;;;;;5000140;28;20046;-84
2023/05/24 04:57:28;;;;;;;9.40;7.13;;;;;;;;;;4982520;28;20347;-85
2023/05/24 04:59:54;;;;;;;11.32;7.07;;;;;;;;;;5000239;28;20085;-85
2023/05/24 05:02:21;;;;;;;8.73;6.30;;;;;;;;;;4999878;28;20113;-85
2023/05/24 05:04:47;;;;;;;12.20;7.97;;;;;;;;;;4999901;28;20305;-85
2023/05/24 05:07:13;;;;;;;11.25;7.32;;;;;;;;;;4982734;28;20034;-85
2023/05/24 05:09:39;;;;;;;14.80;7.47;;;;;;;;;;4999614;28;20030;-85
2023/05/24 05:12:06;;;;;;;13.55;7.15;;;;;;;;;;4982378;28;20037;-85
2023/05/24 05:14:32;;;;;;;9.98;7.03;;;;;;;;;;4982324;28;20022;-85
2023/05/24 05:16:58;;;;;;;14.10;8.02;;;;;;;;;;4982213;28;20034;-84
2023/05/24 05:19:24;;;;;;;11.48;7.72;;;;;;;;;;4999264;28;20529;-85
2023/05/24 05:21:50;;;;;;;12.85;8.30;;;;;;;;;;4999434;28;20061;-85
2023/05/24 05:24:18;;;;;;;11.48;7.93;;;;;;;;;;4999337;28;20050;-85
2023/05/24 05:26:44;;;;;;;11.48;7.75;;;;;;;;;;4999582;28;20030;-85
2023/05/24 05:29:10;;;;;;;13.88;8.30;;;;;;;;;;4981809;28;20092;-85
2023/05/24 05:31:36;;;;;;;11.63;7.57;;;;;;;;;;4999156;28;20037;-85
2023/05/24 05:34:02;;;;;;;16.92;7.95;;;;;;;;;;4999310;28;20077;-85
2023/05/24 05:36:28;;;;;;;11.70;8.35;;;;;;;;;;4998910;28;20117;-84
2023/05/24 05:41:58;;;;;;;11.65;8.23;;;;;;;;;;4998812;28;20033;-84
2023/05/24 05:44:24;;;;;;;16.17;8.13;;;;;;;;;;4981212;28;20073;-84
2023/05/24 05:46:50;;;;;;;14.68;8.63;;;;;;;;;;4998882;28;20066;-85
2023/05/24 05:49:17;;;;;;;12.23;8.18;;;;;;;;;;4999129;28;20035;-85
2023/05/24 05:51:44;;;;;;;14.90;8.40;;;;;;;;;;4998954;28;20031;-85
2023/05/24 05:54:38;;;;;;;11.38;7.72;;;;;;;;;;4999079;28;20322;-84
2023/05/24 05:57:04;;;;;;;9.60;7.63;;;;;;;;;;4997626;28;20038;-84
2023/05/24 05:59:31;;;;;;;10.65;7.40;;;;;;;;;;4998923;28;20050;-84
2023/05/24 06:01:57;;;;;;;14.15;8.20;;;;;;;;;;4998790;28;20057;-85
2023/05/24 06:04:25;;;;;;;11.77;8.13;;;;;;;;;;4981380;28;20077;-84
2023/05/24 06:06:51;;;;;;;12.65;8.38;;;;;;;;;;4998670;28;20030;-84
2023/05/24 06:09:17;;;;;;;10.25;7.50;;;;;;;;;;4981059;28;20409;-85
2023/05/24 06:11:43;;;;;;;11.68;7.50;;;;;;;;;;4998376;28;20045;-84
2023/05/24 06:14:17;;;;;;;9.90;7.10;;;;;;;;;;4981120;28;20475;-84
2023/05/24 06:16:44;;;;;;;11.85;7.28;;;;;;;;;;4998002;28;20038;-84
2023/05/24 06:19:11;;;;;;;10.05;7.50;;;;;;;;;;4998427;28;20026;-84
2023/05/24 06:21:37;;;;;;;13.20;6.55;;;;;;;;;;4990514;28;20062;-84
2023/05/24 06:24:03;;;;;;;11.93;6.95;;;;;;;;;;4997756;28;20157;-84
2023/05/24 06:26:29;;;;;;;8.18;7.07;;;;;;;;;;4998391;28;20320;-84
2023/05/24 06:28:56;;;;;;;11.05;6.72;;;;;;;;;;4998128;28;20023;-84
2023/05/24 06:31:22;;;;;;;11.30;7.03;;;;;;;;;;4997962;28;20034;-84
2023/05/24 06:33:48;;;;;;;10.05;7.32;;;;;;;;;;4998181;28;20022;-84
2023/05/24 06:36:14;;;;;;;11.70;6.68;;;;;;;;;;4998232;28;20106;-84
2023/05/24 06:38:40;;;;;;;14.77;7.55;;;;;;;;;;4997635;28;20026;-83
2023/05/24 06:41:07;;;;;;;9.15;6.80;;;;;;;;;;4997980;28;20382;-83
2023/05/24 06:43:33;;;;;;;9.27;6.53;;;;;;;;;;4997836;28;20113;-84
2023/05/24 06:45:59;;;;;;;10.63;6.35;;;;;;;;;;4980147;28;20060;-83
2023/05/24 06:48:25;;;;;;;9.80;6.57;;;;;;;;;;4997454;28;20384;-84
2023/05/24 06:50:52;;;;;;;8.95;6.43;;;;;;;;;;4979951;28;20048;-84
2023/05/24 06:53:18;;;;;;;13.77;7.30;;;;;;;;;;4997588;28;20420;-85
2023/05/24 06:55:44;;;;;;;8.32;6.18;;;;;;;;;;4997758;28;20029;-83
2023/05/24 06:58:13;;;;;;;6.68;5.88;;;;;;;;;;4998065;28;20406;-84
2023/05/24 07:00:44;;;;;;;10.75;6.50;;;;;;;;;;4997696;28;20409;-84
2023/05/24 07:03:10;;;;;;;10.93;6.47;;;;;;;;;;4997587;28;20050;-81
2023/05/24 07:05:36;;;;;;;15.43;7.03;;;;;;;;;;4997726;28;20050;-81
2023/05/24 07:08:02;;;;;;;11.32;6.38;;;;;;;;;;4999033;28;20042;-81
2023/05/24 07:10:29;;;;;;;8.57;6.03;;;;;;;;;;4984094;28;20054;-84
2023/05/24 07:12:55;;;;;;;12.05;6.38;;;;;;;;;;5001413;28;20091;-83
2023/05/24 07:15:21;;;;;;;10.23;7.43;;;;;;;;;;5001417;28;20077;-83
2023/05/24 07:17:47;;;;;;;10.05;7.45;;;;;;;;;;5001416;28;20073;-83
2023/05/24 07:20:13;;;;;;;9.32;6.72;;;;;;;;;;4984288;28;20023;-84
2023/05/24 07:22:40;;;;;;;13.68;7.10;;;;;;;;;;5001379;28;20026;-84
2023/05/24 07:25:06;;;;;;;12.73;7.43;;;;;;;;;;5001314;28;20026;-83
2023/05/24 07:27:33;;;;;;;9.02;6.70;;;;;;;;;;5001230;28;20073;-84
2023/05/24 07:29:59;;;;;;;8.63;7.22;;;;;;;;;;4983581;28;20041;-84
2023/05/24 07:32:25;;;;;;;8.40;6.63;;;;;;;;;;4983781;28;20034;-84
2023/05/24 07:34:51;;;;;;;11.35;6.50;;;;;;;;;;5000823;28;20145;-83
2023/05/24 07:37:27;;;;;;;10.00;6.68;;;;;;;;;;5001188;28;20030;-83
2023/05/24 07:39:53;;;;;;;8.80;6.78;;;;;;;;;;4983128;28;20035;-84
2023/05/24 07:42:20;;;;;;;9.70;6.90;;;;;;;;;;5001011;28;20447;-84
2023/05/24 07:44:46;;;;;;;10.73;6.97;;;;;;;;;;5000636;28;20038;-83
2023/05/24 07:47:12;;;;;;;13.10;7.05;;;;;;;;;;5001240;28;20186;-82
2023/05/24 07:49:38;;;;;;;9.50;7.22;;;;;;;;;;5000947;28;20026;-82
2023/05/24 07:52:05;;;;;;;10.13;6.60;;;;;;;;;;5000854;28;20380;-82
2023/05/24 07:54:31;;;;;;;15.63;7.38;;;;;;;;;;5000453;28;20409;-82
2023/05/24 07:56:57;;;;;;;10.15;6.65;;;;;;;;;;5000748;28;20057;-82
2023/05/24 07:59:23;;;;;;;14.10;7.25;;;;;;;;;;4983285;28;20054;-82
2023/05/24 08:01:49;;;;;;;9.43;6.32;;;;;;;;;;5000738;28;20030;-82
2023/05/24 08:04:15;;;;;;;11.20;6.95;;;;;;;;;;4983733;28;20034;-84
2023/05/24 08:06:41;;;;;;;8.95;7.05;;;;;;;;;;4983745;28;20030;-85
2023/05/24 08:12:11;;;;;;;8.77;6.53;;;;;;;;;;5000667;28;20037;-84
2023/05/24 08:14:40;;;;;;;10.13;6.80;;;;;;;;;;5000499;28;20023;-84
2023/05/24 08:17:06;;;;;;;9.93;7.15;;;;;;;;;;5000469;28;20429;-84
2023/05/24 08:19:34;;;;;;;11.57;7.63;;;;;;;;;;4999520;28;20027;-84
2023/05/24 08:22:03;;;;;;;11.57;7.50;;;;;;;;;;5000211;28;20031;-83
2023/05/24 08:24:30;;;;;;;9.88;7.40;;;;;;;;;;5000256;28;20030;-83
2023/05/24 08:26:56;;;;;;;10.27;7.55;;;;;;;;;;5000239;28;20409;-84
2023/05/24 08:29:23;;;;;;;8.68;7.25;;;;;;;;;;5000129;28;20409;-84
2023/05/24 08:31:49;;;;;;;11.68;7.43;;;;;;;;;;4999978;28;20484;-84
2023/05/24 08:34:15;;;;;;;12.73;8.27;;;;;;;;;;5000027;28;20350;-85
2023/05/24 08:36:42;;;;;;;19.85;8.43;;;;;;;;;;4981480;28;20018;-84
2023/05/24 08:39:09;;;;;;;12.13;8.13;;;;;;;;;;4982381;28;20058;-83
2023/05/24 08:41:38;;;;;;;11.43;7.60;;;;;;;;;;4999976;28;20031;-83
2023/05/24 08:44:07;;;;;;;9.85;7.32;;;;;;;;;;4999997;28;20409;-84
2023/05/24 08:46:38;;;;;;;13.13;7.32;;;;;;;;;;4982339;28;20042;-84
2023/05/24 08:49:06;;;;;;;13.95;7.50;;;;;;;;;;4982420;28;20105;-84
2023/05/24 08:51:33;;;;;;;14.88;7.40;;;;;;;;;;5000092;28;20026;-84
2023/05/24 08:54:00;;;;;;;13.30;6.85;;;;;;;;;;4999783;28;20410;-84
2023/05/24 08:56:27;;;;;;;8.07;7.05;;;;;;;;;;4982292;28;20041;-84
2023/05/24 08:58:53;;;;;;;9.30;5.90;;;;;;;;;;4999812;28;20032;-84
2023/05/24 09:01:20;;;;;;;10.55;7.13;;;;;;;;;;4999972;28;20046;-84
2023/05/24 09:03:46;;;;;;;8.23;5.93;;;;;;;;;;4999598;28;20061;-83
2023/05/24 09:06:15;;;;;;;8.95;6.28;;;;;;;;;;4982394;28;20053;-84
2023/05/24 09:08:42;;;;;;;9.52;6.72;;;;;;;;;;4999440;28;20030;-84
2023/05/24 09:11:09;;;;;;;9.43;6.35;;;;;;;;;;4999763;28;20031;-90
2023/05/24 09:13:35;;;;;;;8.07;5.93;;;;;;;;;;4982688;28;20605;-88
2023/05/24 09:16:01;;;;;;;10.30;6.10;;;;;;;;;;4999857;28;20416;-88
2023/05/24 09:18:28;;;;;;;8.30;6.60;;;;;;;;;;4999623;28;20054;-88
2023/05/24 09:20:54;;;;;;;10.20;6.03;;;;;;;;;;5000057;28;20077;-88
2023/05/24 09:23:20;;;;;;;11.43;5.97;;;;;;;;;;5000130;28;20026;-87
2023/05/24 09:25:47;;;;;;;8.30;5.63;;;;;;;;;;4982528;28;20022;-88
2023/05/24 09:28:15;;;;;;;10.10;5.22;;;;;;;;;;4982468;28;20105;-89
2023/05/24 09:31:13;;;;;;;6.72;4.68;;;;;;;;;;4999557;28;20026;-89
2023/05/24 09:33:39;;;;;;;7.13;5.00;;;;;;;;;;4886385;29;20338;-88
2023/05/24 09:36:06;;;;;;;7.47;4.80;;;;;;;;;;4902223;29;20084;-89
2023/05/24 09:38:34;;;;;;;7.93;5.57;;;;;;;;;;4901887;29;20021;-88
2023/05/24 09:41:00;;;;;;;9.75;5.90;;;;;;;;;;4901892;29;20032;-89
2023/05/24 09:43:28;;;;;;;7.72;4.93;;;;;;;;;;4901880;29;20136;-88
2023/05/24 09:45:56;;;;;;;6.90;4.57;;;;;;;;;;4901932;29;20036;-88
2023/05/24 09:48:23;;;;;;;7.93;4.75;;;;;;;;;;4901714;29;20063;-89
2023/05/24 09:51:18;;;;;;;8.75;4.80;;;;;;;;;;4901621;29;20045;-89
2023/05/24 09:53:47;;;;;;;9.88;4.45;;;;;;;;;;4812584;29;20034;-89
2023/05/24 09:56:13;;;;;;;7.63;4.45;;;;;;;;;;4827869;29;20035;-88
2023/05/24 09:58:41;;;;;;;8.93;4.72;;;;;;;;;;4827654;29;20050;-89
2023/05/24 10:01:09;;;;;;;7.70;3.90;;;;;;;;;;4827728;29;20050;-89
2023/05/24 10:03:36;;;;;;;6.53;4.30;;;;;;;;;;4827592;29;20073;-89
2023/05/24 10:06:08;;;;;;;7.75;4.93;;;;;;;;;;4827612;29;20124;-88
2023/05/24 10:08:35;;;;;;;6.68;4.72;;;;;;;;;;4843837;29;20083;-88
2023/05/24 10:11:04;;;;;;;6.10;4.30;;;;;;;;;;4901377;29;20131;-91
2023/05/24 10:13:35;;;;;;;6.85;4.40;;;;;;;;;;4900272;29;20119;-82
2023/05/24 10:16:01;;;;;;;8.77;4.18;;;;;;;;;;4890415;29;20081;-83
2023/05/24 10:18:27;;;;;;;6.97;4.30;;;;;;;;;;4900447;29;20575;-83
2023/05/24 10:20:56;;;;;;;5.82;3.95;;;;;;;;;;4913926;29;20036;-83
2023/05/24 10:23:24;;;;;;;6.57;3.63;;;;;;;;;;4903368;29;20063;-84
2023/05/24 10:25:52;;;;;;;5.78;3.63;;;;;;;;;;4919391;29;20115;-83
2023/05/24 10:28:20;;;;;;;5.78;4.30;;;;;;;;;;4919472;29;20028;-84
2023/05/24 10:31:01;;;;;;;9.95;4.07;;;;;;;;;;4981051;28;20121;-84
2023/05/24 10:33:28;;;;;;;6.22;3.80;;;;;;;;;;4980496;28;20041;-84
2023/05/24 10:35:54;;;;;;;7.15;3.60;;;;;;;;;;4980511;28;20069;-83
2023/05/24 10:38:22;;;;;;;6.53;3.45;;;;;;;;;;4997241;28;20025;-82
2023/05/24 10:40:48;;;;;;;6.72;3.40;;;;;;;;;;4997831;28;20336;-83
2023/05/24 10:43:16;;;;;;;5.22;4.13;;;;;;;;;;4997170;28;20307;-83
2023/05/24 10:45:42;;;;;;;6.65;4.13;;;;;;;;;;4997939;28;20034;-83
2023/05/24 10:48:14;;;;;;;5.53;3.95;;;;;;;;;;4980519;28;20027;-83
2023/05/24 10:50:41;;;;;;;8.65;4.03;;;;;;;;;;4980477;28;20038;-84
2023/05/24 10:53:17;;;;;;;185.00;14.70;;;;;;;;;;4997903;28;20023;-85
2023/05/24 10:55:57;;;;;;;103.05;9.20;;;;;;;;;;4980728;28;20022;-85
2023/05/24 10:58:42;;;;;;;32.03;4.90;;;;;;;;;;4998011;28;20030;-85
2023/05/24 11:01:13;;;;;;;5.70;3.33;;;;;;;;;;4997969;28;20034;-85
2023/05/24 11:03:40;;;;;;;7.45;3.78;;;;;;;;;;4980420;28;20034;-86
2023/05/24 11:06:06;;;;;;;4.13;3.70;;;;;;;;;;4998026;28;20121;-85
2023/05/24 11:08:36;;;;;;;6.85;3.72;;;;;;;;;;4997744;28;20030;-86
2023/05/24 11:11:05;;;;;;;5.63;3.90;;;;;;;;;;4980662;28;20053;-86
2023/05/24 11:13:32;;;;;;;6.63;3.80;;;;;;;;;;4997841;28;20332;-85
2023/05/24 11:15:59;;;;;;;6.80;4.20;;;;;;;;;;4997970;28;20026;-86
2023/05/24 11:18:25;;;;;;;7.80;4.60;;;;;;;;;;4997859;28;20164;-86
2023/05/24 11:20:51;;;;;;;5.93;3.88;;;;;;;;;;4997788;28;20050;-86
2023/05/24 11:23:19;;;;;;;6.57;3.90;;;;;;;;;;4980716;28;20033;-86
2023/05/24 11:25:47;;;;;;;7.90;4.18;;;;;;;;;;4997894;28;20426;-86
2023/05/24 11:28:13;;;;;;;6.75;3.92;;;;;;;;;;4980330;28;20042;-86
2023/05/24 11:30:43;;;;;;;6.32;3.90;;;;;;;;;;4997613;28;20023;-86
2023/05/24 11:33:16;;;;;;;4.90;4.22;;;;;;;;;;4997612;28;20424;-85
2023/05/24 11:35:42;;;;;;;6.38;3.97;;;;;;;;;;4997649;28;20057;-84
2023/05/24 11:38:12;;;;;;;6.07;4.50;;;;;;;;;;4997801;28;20041;-84
2023/05/24 11:40:43;;;;;;;7.65;4.13;;;;;;;;;;4997302;28;20022;-84
2023/05/24 11:43:10;;;;;;;5.90;4.40;;;;;;;;;;4997494;28;20030;-84
2023/05/24 11:45:36;;;;;;;5.32;4.07;;;;;;;;;;4980075;28;20039;-84
2023/05/24 11:48:06;;;;;;;4.68;3.97;;;;;;;;;;4997155;28;20026;-84
2023/05/24 11:50:32;;;;;;;5.30;3.95;;;;;;;;;;4996837;28;20045;-84
2023/05/24 11:53:04;;;;;;;4.82;3.80;;;;;;;;;;4997403;28;20386;-84
2023/05/24 11:55:31;;;;;;;5.90;4.25;;;;;;;;;;4981185;28;20026;-84
2023/05/24 11:57:58;;;;;;;7.32;4.25;;;;;;;;;;4983698;28;20028;-84
2023/05/24 12:00:27;;;;;;;6.90;4.00;;;;;;;;;;4983359;28;20026;-85
2023/05/24 12:03:00;;;;;;;5.60;4.00;;;;;;;;;;5000896;28;20042;-85
2023/05/24 12:05:30;;;;;;;5.97;4.00;;;;;;;;;;5000845;28;20054;-85
2023/05/24 12:08:04;;;;;;;6.95;4.78;;;;;;;;;;4983568;28;20313;-85
2023/05/24 12:10:31;;;;;;;5.55;4.63;;;;;;;;;;5001023;28;20037;-87
2023/05/24 12:12:57;;;;;;;7.93;4.15;;;;;;;;;;5000921;28;20033;-85
2023/05/24 12:15:24;;;;;;;6.10;4.32;;;;;;;;;;5000610;28;20471;-85
2023/05/24 12:17:50;;;;;;;5.57;4.57;;;;;;;;;;5000460;28;20057;-84
2023/05/24 12:20:20;;;;;;;8.18;4.65;;;;;;;;;;5000574;28;20023;-85
2023/05/24 12:22:53;;;;;;;10.10;4.50;;;;;;;;;;5000420;28;20033;-85
2023/05/24 12:25:20;;;;;;;6.38;4.30;;;;;;;;;;5000563;28;20069;-84
2023/05/24 12:27:47;;;;;;;7.75;5.10;;;;;;;;;;5000456;28;20376;-83
2023/05/24 12:30:19;;;;;;;5.35;4.70;;;;;;;;;;5000714;28;20029;-87
2023/05/24 12:32:45;;;;;;;5.18;4.53;;;;;;;;;;5000736;28;20026;-86
2023/05/24 12:35:12;;;;;;;5.63;4.88;;;;;;;;;;5000287;28;20065;-83
2023/05/24 12:37:38;;;;;;;8.70;4.63;;;;;;;;;;5000330;28;20110;-85
2023/05/24 12:40:14;;;;;;;9.02;5.00;;;;;;;;;;4982548;28;20030;-84
2023/05/24 12:42:40;;;;;;;8.55;5.10;;;;;;;;;;4982814;28;20073;-84
2023/05/24 12:45:07;;;;;;;7.50;4.82;;;;;;;;;;4999982;28;20046;-84
2023/05/24 12:47:33;;;;;;;4.63;4.22;;;;;;;;;;5000041;28;20030;-84
2023/05/24 12:49:59;;;;;;;9.50;4.97;;;;;;;;;;4982787;28;20026;-83
2023/05/24 12:52:25;;;;;;;7.50;4.80;;;;;;;;;;4982532;28;20038;-85
2023/05/24 12:54:51;;;;;;;7.13;5.10;;;;;;;;;;4999836;28;20401;-84
2023/05/24 12:57:17;;;;;;;5.25;4.72;;;;;;;;;;4999833;28;20398;-84
2023/05/24 12:59:43;;;;;;;10.52;5.40;;;;;;;;;;4999726;28;20105;-84
2023/05/24 13:02:09;;;;;;;8.45;5.32;;;;;;;;;;4999681;28;20077;-83
2023/05/24 13:04:35;;;;;;;9.07;5.45;;;;;;;;;;4999712;28;20037;-84
2023/05/24 13:07:02;;;;;;;7.05;5.20;;;;;;;;;;4999452;28;20026;-84
2023/05/24 13:09:28;;;;;;;7.38;5.57;;;;;;;;;;4999653;28;20041;-84
2023/05/24 13:11:55;;;;;;;7.25;5.00;;;;;;;;;;4999648;28;20045;-84
2023/05/24 13:14:21;;;;;;;8.90;6.25;;;;;;;;;;4999801;28;20097;-84
2023/05/24 13:16:47;;;;;;;9.02;6.03;;;;;;;;;;4999535;28;20045;-83
2023/05/24 13:19:13;;;;;;;9.20;5.80;;;;;;;;;;4999665;28;20118;-84
2023/05/24 13:21:39;;;;;;;8.57;5.80;;;;;;;;;;4982128;28;20030;-84
2023/05/24 13:24:06;;;;;;;7.25;5.60;;;;;;;;;;4999233;28;20085;-84
2023/05/24 13:26:36;;;;;;;6.93;6.00;;;;;;;;;;4999477;28;20022;-85
2023/05/24 13:29:04;;;;;;;7.35;6.28;;;;;;;;;;4999015;28;20031;-84
2023/05/24 13:31:30;;;;;;;9.70;6.38;;;;;;;;;;4985565;28;20022;-84
2023/05/24 13:33:56;;;;;;;9.63;7.13;;;;;;;;;;5008340;28;20143;-84
2023/05/24 13:36:22;;;;;;;8.10;6.35;;;;;;;;;;4998772;28;20053;-83
2023/05/24 13:38:48;;;;;;;10.32;7.05;;;;;;;;;;4999003;28;20065;-84
2023/05/24 13:41:15;;;;;;;9.45;6.55;;;;;;;;;;4981130;28;20027;-83
2023/05/24 13:43:41;;;;;;;12.05;7.57;;;;;;;;;;4998854;28;20409;-83
2023/05/24 13:46:07;;;;;;;9.88;7.80;;;;;;;;;;4998763;28;20402;-83
2023/05/24 13:48:33;;;;;;;12.43;7.22;;;;;;;;;;4998479;28;20022;-83
2023/05/24 13:50:59;;;;;;;8.63;6.88;;;;;;;;;;4998503;28;20026;-83
2023/05/24 13:53:27;;;;;;;10.70;6.75;;;;;;;;;;4998820;28;20109;-83
2023/05/24 13:55:53;;;;;;;11.95;6.50;;;;;;;;;;4981535;28;20041;-84
2023/05/24 13:58:19;;;;;;;17.05;6.95;;;;;;;;;;4998652;28;20093;-83
2023/05/24 14:00:45;;;;;;;7.53;6.55;;;;;;;;;;4998575;28;20109;-84
2023/05/24 14:03:11;;;;;;;8.45;5.82;;;;;;;;;;4998341;28;20046;-84
2023/05/24 14:05:39;;;;;;;8.98;5.88;;;;;;;;;;4980557;28;20065;-84
2023/05/24 14:08:23;;;;;;;6.28;5.03;;;;;;;;;;4998371;28;20337;-85
2023/05/24 14:10:50;;;;;;;8.98;4.95;;;;;;;;;;4997992;28;20401;-85
2023/05/24 14:13:16;;;;;;;6.75;5.50;;;;;;;;;;4997908;28;20476;-85
2023/05/24 14:15:43;;;;;;;6.60;5.13;;;;;;;;;;4998063;28;20026;-84
2023/05/24 14:18:09;;;;;;;5.85;4.85;;;;;;;;;;4979915;28;20125;-84
2023/05/24 14:20:36;;;;;;;9.55;5.38;;;;;;;;;;4998128;28;20026;-84
2023/05/24 14:23:08;;;;;;;8.63;5.85;;;;;;;;;;4998131;28;20034;-85
2023/05/24 14:25:34;;;;;;;7.78;4.20;;;;;;;;;;4998210;28;20436;-84
2023/05/24 14:28:02;;;;;;;6.63;4.80;;;;;;;;;;4980249;28;20109;-84
2023/05/24 14:30:28;;;;;;;11.35;5.95;;;;;;;;;;4998108;28;20113;-84
2023/05/24 14:32:54;;;;;;;7.15;5.50;;;;;;;;;;4997971;28;20029;-84
2023/05/24 14:35:20;;;;;;;7.78;5.68;;;;;;;;;;4997883;28;20413;-84
2023/05/24 14:37:46;;;;;;;11.82;6.57;;;;;;;;;;4980961;28;20033;-84
2023/05/24 14:40:13;;;;;;;9.20;4.78;;;;;;;;;;4980771;28;20033;-84
2023/05/24 14:42:39;;;;;;;26.83;6.47;;;;;;;;;;4997902;28;20041;-84
2023/05/24 14:45:05;;;;;;;8.07;5.78;;;;;;;;;;4997327;28;20070;-83
2023/05/24 14:47:31;;;;;;;6.90;4.72;;;;;;;;;;4997461;28;20109;-83
2023/05/24 14:49:57;;;;;;;6.15;4.97;;;;;;;;;;4998066;28;20050;-83
2023/05/24 14:52:23;;;;;;;6.95;4.53;;;;;;;;;;4997417;28;20030;-83
2023/05/24 14:54:49;;;;;;;6.05;4.45;;;;;;;;;;4997525;28;20030;-84
2023/05/24 14:57:16;;;;;;;8.70;5.00;;;;;;;;;;4997538;28;20043;-83